createdAt,value
2019-05-13T04:33:23.225Z,4.03
2019-05-13T04:38:24.538Z,3.30
2019-05-13T04:43:25.412Z,3.20
2019-05-13T04:48:26.393Z,3.43
2019-05-13T04:53:27.272Z,3.43
2019-05-13T04:58:28.147Z,3.50
2019-05-13T05:03:52.797Z,4.17
2019-05-13T05:09:07.702Z,4.17
2019-05-13T05:14:18.396Z,3.83
2019-05-13T05:19:56.702Z,3.90
2019-05-13T05:25:22.144Z,3.70
2019-05-13T05:30:47.012Z,3.37
2019-05-13T05:35:52.111Z,4.37
2019-05-13T05:40:56.472Z,4.43
2019-05-13T05:46:01.756Z,4.10
2019-05-13T05:51:02.944Z,4.03
2019-05-13T05:56:04.020Z,11.13
2019-05-13T06:01:05.713Z,4.63
2019-05-13T06:06:06.680Z,4.10
2019-05-13T06:11:08.268Z,3.57
2019-05-13T06:16:09.132Z,4.07
2019-05-13T06:21:12.066Z,3.83
2019-05-13T06:26:13.020Z,3.87
2019-05-13T06:31:13.996Z,4.10
2019-05-13T06:36:14.885Z,4.00
2019-05-13T06:41:15.762Z,3.57
2019-05-13T06:46:16.952Z,3.80
2019-05-13T06:51:17.913Z,3.80
2019-05-13T06:56:21.589Z,3.60
2019-05-13T07:01:22.072Z,3.50
2019-05-13T07:06:22.942Z,3.83
2019-05-13T07:11:24.964Z,4.13
2019-05-13T07:16:26.204Z,3.10
2019-05-13T07:21:27.108Z,2.60
2019-05-13T07:26:27.992Z,2.00
2019-05-13T07:31:28.874Z,2.23
2019-05-13T07:36:31.673Z,1.80
2019-05-13T07:41:39.097Z,2.03
2019-05-13T07:46:35.736Z,1.93
2019-05-13T07:51:36.615Z,1.57
2019-05-13T07:56:37.483Z,1.80
2019-05-13T08:01:38.365Z,1.80
2019-05-13T08:06:41.522Z,1.57
2019-05-13T08:12:00.593Z,1.50
2019-05-13T08:16:44.930Z,1.70
2019-05-13T08:21:46.008Z,1.17
2019-05-13T08:26:49.905Z,1.47
2019-05-13T08:31:51.676Z,1.43
2019-05-13T08:36:52.522Z,1.30
2019-05-13T08:41:53.387Z,1.37
2019-05-13T08:46:56.152Z,1.53
2019-05-13T08:51:57.118Z,1.27
2019-05-13T08:56:57.945Z,1.37
2019-05-13T09:01:58.934Z,1.57
2019-05-13T09:07:02.224Z,1.50
2019-05-13T09:12:03.293Z,1.30
2019-05-13T09:17:04.272Z,1.40
2019-05-13T09:22:05.275Z,1.40
2019-05-13T09:27:06.164Z,1.57
2019-05-13T09:32:07.331Z,1.20
2019-05-13T09:37:08.246Z,1.40
2019-05-13T09:42:09.117Z,1.50
2019-05-13T09:47:11.799Z,0.90
2019-05-13T09:52:12.786Z,1.13
2019-05-13T09:57:13.669Z,1.20
2019-05-13T10:02:14.529Z,1.30
2019-05-13T10:07:15.405Z,1.10
2019-05-13T10:12:16.280Z,1.17
2019-05-13T10:17:17.160Z,1.47
2019-05-13T10:22:18.823Z,1.07
2019-05-13T10:27:22.334Z,1.07
2019-05-13T10:32:22.989Z,1.13
2019-05-13T10:37:23.973Z,1.07
2019-05-13T10:42:24.850Z,1.40
2019-05-13T10:47:26.029Z,1.10
2019-05-13T10:52:27.477Z,1.10
2019-05-13T10:57:31.792Z,1.20
2019-05-13T11:02:32.904Z,1.00
2019-05-13T11:07:34.088Z,1.27
2019-05-13T11:12:35.072Z,0.90
2019-05-13T11:17:36.053Z,1.07
2019-05-13T11:22:36.915Z,0.90
2019-05-13T11:27:37.819Z,0.87
2019-05-13T11:32:38.695Z,0.67
2019-05-13T11:37:39.775Z,1.10
2019-05-13T11:42:42.226Z,0.73
2019-05-13T11:47:43.920Z,0.90
2019-05-13T11:52:47.653Z,0.97
2019-05-13T11:57:48.690Z,1.07
2019-05-13T12:02:52.042Z,0.70
2019-05-13T12:07:53.491Z,0.87
2019-05-13T12:12:54.839Z,0.73
2019-05-13T12:17:55.760Z,0.97
2019-05-13T12:22:56.976Z,0.60
2019-05-13T12:27:57.937Z,0.93
2019-05-13T12:32:58.812Z,0.70
2019-05-13T12:37:59.697Z,0.80
2019-05-13T12:43:01.948Z,0.90
2019-05-13T12:48:03.501Z,0.90
2019-05-13T12:53:04.339Z,0.50
2019-05-13T12:58:05.200Z,0.80
2019-05-13T13:03:06.081Z,1.00
2019-05-13T13:08:26.137Z,0.80
2019-05-13T13:13:09.761Z,0.60
2019-05-13T13:23:13.813Z,1.17
2019-05-13T13:28:15.675Z,1.10
2019-05-13T13:33:16.779Z,0.67
2019-05-13T13:38:17.667Z,0.93
2019-05-13T13:43:18.539Z,0.73
2019-05-13T13:48:24.949Z,1.13
2019-05-13T13:53:25.990Z,0.60
2019-05-13T13:58:25.795Z,1.13
2019-05-13T14:03:27.104Z,0.50
2019-05-13T14:06:52.388Z,0.77
2019-05-13T14:08:27.966Z,0.90
2019-05-13T14:13:28.852Z,1.00
2019-05-13T14:18:31.685Z,0.90
2019-05-13T14:23:32.511Z,0.80
2019-05-13T14:28:34.010Z,0.60
2019-05-13T14:33:35.697Z,0.63
2019-05-13T14:38:37.482Z,0.97
2019-05-13T14:43:38.359Z,0.80
2019-05-13T14:48:39.237Z,0.50
2019-05-13T14:53:41.635Z,1.27
2019-05-13T14:58:43.446Z,1.00
2019-05-13T15:03:44.321Z,0.83
2019-05-13T15:08:45.757Z,0.97
2019-05-13T15:13:57.116Z,1.10
2019-05-13T15:19:01.504Z,1.10
2019-05-13T15:24:03.072Z,1.00
2019-05-13T15:29:05.068Z,0.83
2019-05-13T15:34:06.262Z,1.30
2019-05-13T15:39:07.148Z,1.30
2019-05-13T15:44:08.434Z,0.83
2019-05-13T15:49:09.316Z,0.90
2019-05-13T15:54:15.357Z,0.93
2019-05-13T15:59:13.428Z,1.17
2019-05-13T16:04:14.319Z,0.90
2019-05-13T16:09:15.179Z,1.10
2019-05-13T16:14:16.156Z,1.07
2019-05-13T16:19:17.028Z,0.80
2019-05-13T16:24:20.885Z,0.80
2019-05-13T16:29:22.594Z,0.90
2019-05-13T16:34:23.661Z,1.07
2019-05-13T16:39:24.532Z,1.10
2019-05-13T16:44:25.416Z,0.80
2019-05-13T16:49:26.273Z,1.10
2019-05-13T16:54:27.144Z,1.17
2019-05-13T16:59:28.017Z,1.67
2019-05-13T17:04:29.135Z,1.30
2019-05-13T17:09:32.095Z,1.00
2019-05-13T17:14:32.774Z,1.00
2019-05-13T17:19:33.650Z,1.27
2019-05-13T17:24:34.534Z,0.90
2019-05-13T17:29:35.409Z,0.93
2019-05-13T17:34:36.303Z,1.30
2019-05-13T17:39:37.184Z,1.27
2019-05-13T17:44:38.075Z,1.50
2019-05-13T17:49:38.959Z,1.33
2019-05-13T17:54:42.629Z,2.30
2019-05-13T17:59:43.048Z,1.43
2019-05-13T18:04:44.141Z,1.30
2019-05-13T18:09:45.024Z,1.20
2019-05-13T18:14:45.900Z,1.50
2019-05-13T18:19:46.785Z,1.40
2019-05-13T18:24:47.669Z,1.43
2019-05-13T18:29:48.547Z,1.20
2019-05-13T18:34:49.419Z,1.60
2019-05-13T18:39:52.050Z,1.67
2019-05-13T18:44:53.076Z,1.83
2019-05-13T18:49:53.980Z,1.20
2019-05-13T18:54:54.897Z,1.70
2019-05-13T18:59:55.764Z,1.40
2019-05-13T19:04:56.693Z,1.60
2019-05-13T19:09:57.571Z,1.73
2019-05-13T19:15:02.240Z,1.70
2019-05-13T19:20:03.765Z,1.90
2019-05-13T19:25:05.941Z,1.80
2019-05-13T19:30:06.934Z,1.67
2019-05-13T19:35:08.557Z,2.03
2019-05-13T19:40:12.733Z,1.90
2019-05-13T19:45:13.463Z,1.90
2019-05-13T19:50:14.465Z,2.00
2019-05-13T19:55:15.457Z,1.43
